Flight Track Log - Related Links

Times and Time Zones

All times are in EDT time to prevent confusion due to time zone crossing. See the N877PM flight status page for this flight to view local times or setup timezone preferences in your user account.

Time Position Orientation Groundspeed Altitude Reporting Facility
EDT Latitude Longitude Course Direction KTS MPH feet Rate Location/Type
Sun 10:12:11 AM 39.7000 -86.2333 110° East 181 208 3,100  Level Indianapolis TRACON
Sun 10:13:08 AM 39.7503 -86.2239 North 205 236 5,700 2,339 Climbing Indianapolis Center
Sun 10:14:09 AM 39.7953 -86.2514 335° Northwest 188 216 7,700 2,000 Climbing Indianapolis Center
Sun 10:15:11 AM 39.8406 -86.2861 330° Northwest 188 216 9,800 1,984 Climbing Indianapolis Center
Sun 10:16:13 AM 39.8869 -86.3203 331° Northwest 189 217 11,800 2,098 Climbing Indianapolis Center
Sun 10:17:14 AM 39.9431 -86.3622 330° Northwest 190 219 14,100 2,000 Climbing Indianapolis Center
Sun 10:18:16 AM 39.9883 -86.3997 328° Northwest 192 221 15,900 1,645 Climbing Indianapolis Center
Sun 10:19:18 AM 40.0111 -86.4603 296° West 191 220 17,500 1,512 Climbing Indianapolis Center
Sun 10:20:19 AM 40.0336 -86.5186 297° West 188 216 19,000 1,415 Climbing Indianapolis Center
Sun 10:21:21 AM 40.0578 -86.5819 297° West 188 216 20,400 1,355 Climbing Indianapolis Center
Sun 10:22:23 AM 40.0836 -86.6475 297° West 195 224 21,800 1,512 Climbing Indianapolis Center
Sun 10:23:24 AM 40.1158 -86.7300 297° West 208 239 23,500 1,419 Climbing Indianapolis Center
Sun 10:23:56 AM 40.1267 -86.7592 296° West 214 246 24,000 319 Climbing Chicago Center
Sun 10:24:58 AM 40.1575 -86.8408 296° West 250 288 24,000  Level Chicago Center
Sun 10:26:00 AM 40.2025 -86.9564 297° West 295 339 24,000 484 Level Chicago Center
Sun 10:27:02 AM 40.2408 -87.0539 297° West 301 346 25,000 484 Climbing Chicago Center
Sun 10:28:04 AM 40.2783 -87.1550 296° West 303 349 25,000  Level Chicago Center
Sun 10:29:06 AM 40.3186 -87.2619 296° West 323 372 25,000  Level Chicago Center
Sun 10:30:08 AM 40.3603 -87.3683 297° West 328 377 25,000 194 Level Chicago Center
Sun 10:31:10 AM 40.4069 -87.4917 296° West 332 382 25,400 1,122 Climbing Chicago Center
Sun 10:32:11 AM 40.4439 -87.5903 296° West 304 350 27,300 1,268 Climbing Chicago Center
Sun 10:33:13 AM 40.4786 -87.6803 297° West 282 325 28,000 339 Climbing Chicago Center
Sun 10:34:15 AM 40.5164 -87.7833 296° West 310 357 28,000  Level Chicago Center
Sun 10:35:17 AM 40.5561 -87.8914 296° West 325 374 28,000  Level Chicago Center
Sun 10:36:19 AM 40.5981 -88.0025 296° West 334 384 28,000  Level Chicago Center
Sun 10:37:21 AM 40.6481 -88.1369 296° West 337 388 28,000  Level Chicago Center
Sun 10:38:23 AM 40.6892 -88.2494 296° West 338 389 28,000  Level Chicago Center
Sun 10:39:25 AM 40.7311 -88.3642 296° West 344 396 28,000  Level Chicago Center
Sun 10:40:27 AM 40.7731 -88.4767 296° West 343 395 28,000  Level Chicago Center
Sun 10:41:28 AM 40.8150 -88.5919 296° West 344 396 28,000  Level Chicago Center
Sun 10:42:31 AM 40.8558 -88.7053 296° West 343 395 28,000  Level Chicago Center
Sun 10:43:32 AM 40.8975 -88.8183 296° West 344 396 28,000  Level Chicago Center
Sun 10:44:34 AM 40.9428 -88.9439 296° West 343 395 28,000  Level Chicago Center
Sun 10:45:36 AM 40.9825 -89.0569 295° West 342 394 28,000  Level Chicago Center
Sun 10:46:38 AM 41.0256 -89.1792 295° West 338 389 28,000  Level Chicago Center
Sun 10:47:39 AM 41.0619 -89.2797 296° West 338 389 28,000  Level Chicago Center
Sun 10:48:41 AM 41.1106 -89.4150 296° West 338 389 28,000  Level Chicago Center
Sun 10:49:43 AM 41.1497 -89.5281 295° West 338 389 28,000  Level Chicago Center
Sun 10:50:45 AM 41.1892 -89.6406 295° West 338 389 28,000  Level Chicago Center
Sun 10:51:47 AM 41.2289 -89.7528 295° West 339 390 28,000  Level Chicago Center
Sun 10:52:48 AM 41.2672 -89.8656 294° West 338 389 28,000  Level Chicago Center
Sun 10:53:50 AM 41.3072 -89.9792 295° West 339 390 28,000 -677 Level Chicago Center
Sun 10:54:52 AM 41.3550 -90.1175 295° West 349 402 26,600 -1,645 Descending Chicago Center
Sun 10:55:54 AM 41.3953 -90.2364 294° West 353 406 24,600 -1,951 Descending Chicago Center
Sun 10:56:55 AM 41.4364 -90.3558 295° West 354 407 22,600 -1,951 Descending Chicago Center
Sun 10:57:57 AM 41.4781 -90.4753 295° West 355 409 20,600 -1,935 Descending Chicago Center
Sun 10:58:59 AM 41.5189 -90.5947 295° West 356 410 18,600 -2,129 Descending Chicago Center
Sun 11:00:01 AM 41.5603 -90.7297 292° West 360 414 16,200 -2,274 Descending Chicago Center
Sun 11:01:03 AM 41.5975 -90.8311 296° West 311 358 13,900 -2,000 Descending Chicago Center
Sun 11:02:04 AM 41.6297 -90.9353 293° West 304 350 12,100 -1,366 Descending Chicago Center
Sun 11:03:06 AM 41.6642 -91.0383 294° West 305 351 11,100 -484 Descending Chicago Center
Sun 11:04:08 AM 41.6950 -91.1350 293° West 292 336 11,100 -1,065 Level Chicago Center
Sun 11:05:10 AM 41.7342 -91.2500 295° West 288 331 8,900 -2,000 Descending Chicago Center
Sun 11:06:11 AM 41.7650 -91.3436 294° West 280 322 7,000 -1,805 Descending Chicago Center
Sun 11:07:13 AM 41.7919 -91.4400 291° West 280 322 5,200 -1,597 Descending Chicago Center
Sun 11:08:15 AM 41.8022 -91.5411 278° West 278 320 3,700 -1,171 Descending Chicago Center
Sun 11:09:16 AM 41.8158 -91.6344 281° West 269 310 2,800 -732 Descending Chicago Center
Sun 11:10:18 AM 41.8394 -91.7236 290° West 264 304 2,200 -484 Descending Chicago Center
Sun 11:11:20 AM 41.8733 -91.7956 302° West 247 284 1,800 -387 Descending Chicago Center
Sun 11:13:00 AM 41.8847 -91.7108 304° West  Level Estimated
Sun 11:20:00 AM 41.8847 -91.7108 304° West  Level Estimated

Login

Don't have an account? Register now (free) for customized features, flight alerts, and more!